sensor_id;sensor_type;location;lat;lon;timestamp;P1;durP1;ratioP1;P2;durP2;ratioP2
54557;SDS011;40452;50.080;20.040;2023-08-07T03:18:31;1.95;;;1.58;;
54557;SDS011;40452;50.080;20.040;2023-08-07T03:20:57;2.03;;;1.48;;
54557;SDS011;40452;50.080;20.040;2023-08-07T03:23:24;2.20;;;1.40;;
54557;SDS011;40452;50.080;20.040;2023-08-07T03:25:50;3.20;;;1.60;;
54557;SDS011;40452;50.080;20.040;2023-08-07T03:28:17;4.07;;;1.40;;
54557;SDS011;40452;50.080;20.040;2023-08-07T03:30:43;4.30;;;1.40;;
54557;SDS011;40452;50.080;20.040;2023-08-07T03:33:09;2.08;;;1.25;;
54557;SDS011;40452;50.080;20.040;2023-08-07T03:35:35;1.67;;;1.30;;
54557;SDS011;40452;50.080;20.040;2023-08-07T03:38:01;1.80;;;1.30;;
54557;SDS011;40452;50.080;20.040;2023-08-07T03:40:27;2.45;;;1.20;;
54557;SDS011;40452;50.080;20.040;2023-08-07T03:42:52;5.70;;;1.50;;
54557;SDS011;40452;50.080;20.040;2023-08-07T03:45:18;6.38;;;1.50;;
54557;SDS011;40452;50.080;20.040;2023-08-07T03:47:43;5.70;;;1.38;;
54557;SDS011;40452;50.080;20.040;2023-08-07T03:50:09;2.40;;;1.27;;
54557;SDS011;40452;50.080;20.040;2023-08-07T03:52:35;1.73;;;1.40;;
54557;SDS011;40452;50.080;20.040;2023-08-07T03:55:00;4.00;;;1.52;;
54557;SDS011;40452;50.080;20.040;2023-08-07T03:57:26;2.55;;;1.50;;
54557;SDS011;40452;50.080;20.040;2023-08-07T03:59:52;3.80;;;1.80;;
54557;SDS011;40452;50.080;20.040;2023-08-07T04:02:19;3.63;;;2.20;;
54557;SDS011;40452;50.080;20.040;2023-08-07T04:04:44;4.88;;;2.15;;
54557;SDS011;40452;50.080;20.040;2023-08-07T04:07:10;4.45;;;2.20;;
54557;SDS011;40452;50.080;20.040;2023-08-07T04:09:35;3.63;;;2.00;;
54557;SDS011;40452;50.080;20.040;2023-08-07T04:12:01;2.92;;;2.10;;
54557;SDS011;40452;50.080;20.040;2023-08-07T04:14:27;3.70;;;2.22;;
54557;SDS011;40452;50.080;20.040;2023-08-07T04:16:52;4.15;;;2.13;;
54557;SDS011;40452;50.080;20.040;2023-08-07T04:19:18;2.42;;;1.92;;
54557;SDS011;40452;50.080;20.040;2023-08-07T04:21:43;3.50;;;2.13;;
54557;SDS011;40452;50.080;20.040;2023-08-07T04:24:09;2.80;;;2.00;;
54557;SDS011;40452;50.080;20.040;2023-08-07T04:26:36;2.65;;;1.80;;
54557;SDS011;40452;50.080;20.040;2023-08-07T04:29:02;3.72;;;2.20;;
54557;SDS011;40452;50.080;20.040;2023-08-07T04:31:28;3.03;;;1.95;;
54557;SDS011;40452;50.080;20.040;2023-08-07T04:33:56;3.58;;;1.67;;
54557;SDS011;40452;50.080;20.040;2023-08-07T04:36:22;4.53;;;2.13;;
54557;SDS011;40452;50.080;20.040;2023-08-07T04:38:49;2.60;;;2.00;;
54557;SDS011;40452;50.080;20.040;2023-08-07T04:41:15;3.50;;;2.10;;
54557;SDS011;40452;50.080;20.040;2023-08-07T04:43:40;2.80;;;1.77;;
54557;SDS011;40452;50.080;20.040;2023-08-07T04:46:07;4.70;;;2.20;;
54557;SDS011;40452;50.080;20.040;2023-08-07T04:48:34;3.33;;;2.05;;
54557;SDS011;40452;50.080;20.040;2023-08-07T04:51:02;2.90;;;1.73;;
54557;SDS011;40452;50.080;20.040;2023-08-07T04:53:28;2.67;;;1.60;;
54557;SDS011;40452;50.080;20.040;2023-08-07T04:55:54;2.67;;;1.60;;
54557;SDS011;40452;50.080;20.040;2023-08-07T04:58:19;2.05;;;1.40;;
54557;SDS011;40452;50.080;20.040;2023-08-07T05:00:45;2.20;;;1.60;;
54557;SDS011;40452;50.080;20.040;2023-08-07T05:03:11;2.17;;;1.58;;
54557;SDS011;40452;50.080;20.040;2023-08-07T05:05:36;2.72;;;1.30;;
54557;SDS011;40452;50.080;20.040;2023-08-07T05:08:02;2.28;;;1.33;;
54557;SDS011;40452;50.080;20.040;2023-08-07T05:10:28;2.10;;;1.23;;
54557;SDS011;40452;50.080;20.040;2023-08-07T05:12:53;2.05;;;1.63;;
54557;SDS011;40452;50.080;20.040;2023-08-07T05:15:24;5.72;;;1.50;;
54557;SDS011;40452;50.080;20.040;2023-08-07T05:17:50;3.60;;;1.42;;
54557;SDS011;40452;50.080;20.040;2023-08-07T05:20:16;6.22;;;1.20;;
54557;SDS011;40452;50.080;20.040;2023-08-07T05:22:42;2.35;;;1.30;;
54557;SDS011;40452;50.080;20.040;2023-08-07T05:25:08;4.22;;;1.25;;
54557;SDS011;40452;50.080;20.040;2023-08-07T05:27:34;3.65;;;1.20;;
54557;SDS011;40452;50.080;20.040;2023-08-07T05:30:00;1.45;;;1.10;;
54557;SDS011;40452;50.080;20.040;2023-08-07T05:32:26;3.10;;;0.90;;
54557;SDS011;40452;50.080;20.040;2023-08-07T05:34:52;2.90;;;1.05;;
54557;SDS011;40452;50.080;20.040;2023-08-07T05:37:17;3.20;;;1.15;;
54557;SDS011;40452;50.080;20.040;2023-08-07T05:39:43;1.95;;;0.90;;
54557;SDS011;40452;50.080;20.040;2023-08-07T05:42:08;2.05;;;0.88;;
54557;SDS011;40452;50.080;20.040;2023-08-07T12:51:18;2.28;;;1.75;;
54557;SDS011;40452;50.080;20.040;2023-08-07T12:53:44;3.47;;;1.42;;
54557;SDS011;40452;50.080;20.040;2023-08-07T12:56:10;3.65;;;1.75;;
54557;SDS011;40452;50.080;20.040;2023-08-07T12:58:35;3.92;;;1.70;;
54557;SDS011;40452;50.080;20.040;2023-08-07T13:01:01;5.10;;;1.60;;
54557;SDS011;40452;50.080;20.040;2023-08-07T13:03:26;4.75;;;2.50;;
54557;SDS011;40452;50.080;20.040;2023-08-07T13:05:52;3.88;;;1.90;;
54557;SDS011;40452;50.080;20.040;2023-08-07T13:08:17;3.30;;;1.20;;
54557;SDS011;40452;50.080;20.040;2023-08-07T13:10:43;2.38;;;1.40;;
54557;SDS011;40452;50.080;20.040;2023-08-07T13:13:09;2.40;;;1.60;;
54557;SDS011;40452;50.080;20.040;2023-08-07T13:15:34;2.25;;;1.70;;
54557;SDS011;40452;50.080;20.040;2023-08-07T13:18:00;3.13;;;1.88;;
54557;SDS011;40452;50.080;20.040;2023-08-07T13:20:25;3.47;;;1.60;;
54557;SDS011;40452;50.080;20.040;2023-08-07T13:22:52;2.22;;;1.23;;
54557;SDS011;40452;50.080;20.040;2023-08-07T13:25:17;2.47;;;1.48;;
54557;SDS011;40452;50.080;20.040;2023-08-07T13:27:43;1.98;;;1.40;;
54557;SDS011;40452;50.080;20.040;2023-08-07T13:30:08;2.47;;;1.48;;
54557;SDS011;40452;50.080;20.040;2023-08-07T13:32:35;3.47;;;1.60;;
54557;SDS011;40452;50.080;20.040;2023-08-07T13:35:01;3.10;;;1.67;;
54557;SDS011;40452;50.080;20.040;2023-08-07T13:37:28;4.65;;;1.50;;
54557;SDS011;40452;50.080;20.040;2023-08-07T13:39:54;2.83;;;1.58;;
54557;SDS011;40452;50.080;20.040;2023-08-07T13:42:22;3.38;;;1.60;;
54557;SDS011;40452;50.080;20.040;2023-08-07T13:44:49;3.42;;;1.90;;
54557;SDS011;40452;50.080;20.040;2023-08-07T13:47:14;3.35;;;1.92;;
54557;SDS011;40452;50.080;20.040;2023-08-07T13:49:42;4.82;;;2.10;;
54557;SDS011;40452;50.080;20.040;2023-08-07T13:52:08;4.43;;;1.95;;
54557;SDS011;40452;50.080;20.040;2023-08-07T13:54:34;5.00;;;2.22;;
54557;SDS011;40452;50.080;20.040;2023-08-07T13:56:59;5.60;;;2.72;;
54557;SDS011;40452;50.080;20.040;2023-08-07T13:59:25;3.97;;;2.50;;
54557;SDS011;40452;50.080;20.040;2023-08-07T14:01:51;5.68;;;2.00;;
54557;SDS011;40452;50.080;20.040;2023-08-07T14:04:17;3.15;;;1.75;;
54557;SDS011;40452;50.080;20.040;2023-08-07T14:06:43;3.40;;;1.75;;
54557;SDS011;40452;50.080;20.040;2023-08-07T14:09:09;3.80;;;1.50;;
54557;SDS011;40452;50.080;20.040;2023-08-07T14:11:36;3.17;;;1.70;;
54557;SDS011;40452;50.080;20.040;2023-08-07T14:14:02;2.65;;;1.50;;
54557;SDS011;40452;50.080;20.040;2023-08-07T14:16:27;2.33;;;1.42;;
54557;SDS011;40452;50.080;20.040;2023-08-07T14:18:53;3.55;;;1.80;;
54557;SDS011;40452;50.080;20.040;2023-08-07T14:21:18;2.97;;;1.90;;
54557;SDS011;40452;50.080;20.040;2023-08-07T14:23:44;3.03;;;1.42;;
54557;SDS011;40452;50.080;20.040;2023-08-07T14:26:12;3.67;;;1.70;;
54557;SDS011;40452;50.080;20.040;2023-08-07T14:28:38;5.80;;;1.42;;
54557;SDS011;40452;50.080;20.040;2023-08-07T14:31:07;5.43;;;1.70;;
54557;SDS011;40452;50.080;20.040;2023-08-07T14:33:33;3.15;;;1.70;;
54557;SDS011;40452;50.080;20.040;2023-08-07T14:36:00;4.15;;;1.95;;
54557;SDS011;40452;50.080;20.040;2023-08-07T14:38:26;3.60;;;1.63;;
54557;SDS011;40452;50.080;20.040;2023-08-07T14:40:52;5.35;;;1.88;;
54557;SDS011;40452;50.080;20.040;2023-08-07T14:43:17;7.05;;;2.38;;
54557;SDS011;40452;50.080;20.040;2023-08-07T14:45:43;11.57;;;2.50;;
54557;SDS011;40452;50.080;20.040;2023-08-07T14:48:10;6.40;;;2.45;;
54557;SDS011;40452;50.080;20.040;2023-08-07T14:50:35;9.63;;;2.35;;
54557;SDS011;40452;50.080;20.040;2023-08-07T14:53:01;6.85;;;2.67;;
54557;SDS011;40452;50.080;20.040;2023-08-07T14:55:27;9.48;;;3.08;;
54557;SDS011;40452;50.080;20.040;2023-08-07T14:57:52;9.00;;;3.75;;
54557;SDS011;40452;50.080;20.040;2023-08-07T15:00:18;11.15;;;3.78;;
54557;SDS011;40452;50.080;20.040;2023-08-07T15:02:45;15.95;;;3.22;;
54557;SDS011;40452;50.080;20.040;2023-08-07T15:05:10;9.45;;;3.05;;
54557;SDS011;40452;50.080;20.040;2023-08-07T15:07:36;11.68;;;3.13;;
54557;SDS011;40452;50.080;20.040;2023-08-07T15:10:01;9.75;;;3.17;;
54557;SDS011;40452;50.080;20.040;2023-08-07T15:12:27;6.00;;;2.47;;
54557;SDS011;40452;50.080;20.040;2023-08-07T15:14:53;9.80;;;3.00;;
54557;SDS011;40452;50.080;20.040;2023-08-07T15:17:18;7.97;;;2.63;;
54557;SDS011;40452;50.080;20.040;2023-08-07T15:19:44;6.43;;;2.70;;
54557;SDS011;40452;50.080;20.040;2023-08-07T15:22:10;7.20;;;2.55;;
54557;SDS011;40452;50.080;20.040;2023-08-07T15:24:35;5.68;;;2.25;;
54557;SDS011;40452;50.080;20.040;2023-08-07T15:27:01;5.82;;;2.72;;
54557;SDS011;40452;50.080;20.040;2023-08-07T15:29:26;6.07;;;2.42;;
54557;SDS011;40452;50.080;20.040;2023-08-07T15:31:52;6.88;;;2.40;;
54557;SDS011;40452;50.080;20.040;2023-08-07T15:34:17;7.10;;;2.15;;
54557;SDS011;40452;50.080;20.040;2023-08-07T15:36:43;7.25;;;2.20;;
54557;SDS011;40452;50.080;20.040;2023-08-07T15:39:09;6.30;;;2.17;;
54557;SDS011;40452;50.080;20.040;2023-08-07T15:41:34;5.30;;;2.30;;
54557;SDS011;40452;50.080;20.040;2023-08-07T15:44:01;5.72;;;2.20;;
54557;SDS011;40452;50.080;20.040;2023-08-07T15:46:27;5.15;;;2.13;;
54557;SDS011;40452;50.080;20.040;2023-08-07T15:48:52;5.60;;;2.13;;
54557;SDS011;40452;50.080;20.040;2023-08-07T15:51:20;4.53;;;2.05;;
54557;SDS011;40452;50.080;20.040;2023-08-07T15:53:45;4.63;;;2.15;;
54557;SDS011;40452;50.080;20.040;2023-08-07T15:56:11;4.70;;;1.85;;
54557;SDS011;40452;50.080;20.040;2023-08-07T15:58:38;4.35;;;1.85;;
54557;SDS011;40452;50.080;20.040;2023-08-07T16:01:03;5.70;;;2.03;;
54557;SDS011;40452;50.080;20.040;2023-08-07T16:03:29;8.18;;;2.00;;
54557;SDS011;40452;50.080;20.040;2023-08-07T16:05:55;3.92;;;2.08;;
54557;SDS011;40452;50.080;20.040;2023-08-07T16:08:20;4.25;;;1.90;;
54557;SDS011;40452;50.080;20.040;2023-08-07T16:10:46;4.60;;;1.70;;
54557;SDS011;40452;50.080;20.040;2023-08-07T16:13:12;4.25;;;1.70;;
54557;SDS011;40452;50.080;20.040;2023-08-07T16:15:38;4.32;;;1.75;;
54557;SDS011;40452;50.080;20.040;2023-08-07T16:18:06;3.85;;;1.85;;
54557;SDS011;40452;50.080;20.040;2023-08-07T16:20:31;4.97;;;2.00;;
54557;SDS011;40452;50.080;20.040;2023-08-07T16:22:57;4.82;;;1.65;;
54557;SDS011;40452;50.080;20.040;2023-08-07T16:25:23;4.45;;;1.80;;
54557;SDS011;40452;50.080;20.040;2023-08-07T16:27:48;5.38;;;2.00;;
54557;SDS011;40452;50.080;20.040;2023-08-07T16:30:15;8.15;;;1.70;;
54557;SDS011;40452;50.080;20.040;2023-08-07T16:32:41;17.85;;;2.72;;
54557;SDS011;40452;50.080;20.040;2023-08-07T16:35:07;4.88;;;1.77;;
54557;SDS011;40452;50.080;20.040;2023-08-07T16:37:33;4.32;;;1.88;;
54557;SDS011;40452;50.080;20.040;2023-08-07T16:39:58;3.80;;;1.70;;
54557;SDS011;40452;50.080;20.040;2023-08-07T16:42:24;4.88;;;1.70;;
54557;SDS011;40452;50.080;20.040;2023-08-07T16:44:50;2.88;;;1.65;;
54557;SDS011;40452;50.080;20.040;2023-08-07T16:47:16;4.07;;;1.85;;
54557;SDS011;40452;50.080;20.040;2023-08-07T16:49:42;4.07;;;1.80;;
54557;SDS011;40452;50.080;20.040;2023-08-07T16:52:08;3.13;;;1.60;;
54557;SDS011;40452;50.080;20.040;2023-08-07T16:54:34;2.67;;;1.50;;
54557;SDS011;40452;50.080;20.040;2023-08-07T16:57:00;2.97;;;1.60;;
54557;SDS011;40452;50.080;20.040;2023-08-07T16:59:27;4.63;;;1.50;;
54557;SDS011;40452;50.080;20.040;2023-08-07T17:01:54;4.40;;;1.65;;
54557;SDS011;40452;50.080;20.040;2023-08-07T17:04:20;4.32;;;1.60;;
54557;SDS011;40452;50.080;20.040;2023-08-07T17:06:45;4.35;;;1.42;;
54557;SDS011;40452;50.080;20.040;2023-08-07T17:09:11;2.38;;;1.58;;
54557;SDS011;40452;50.080;20.040;2023-08-07T17:11:36;3.30;;;1.50;;
54557;SDS011;40452;50.080;20.040;2023-08-07T17:14:02;4.90;;;1.70;;
54557;SDS011;40452;50.080;20.040;2023-08-07T17:16:28;10.85;;;1.75;;
54557;SDS011;40452;50.080;20.040;2023-08-07T17:18:54;6.63;;;1.63;;
54557;SDS011;40452;50.080;20.040;2023-08-07T17:21:20;6.00;;;1.50;;
54557;SDS011;40452;50.080;20.040;2023-08-07T17:23:46;4.50;;;1.75;;
54557;SDS011;40452;50.080;20.040;2023-08-07T17:26:12;6.78;;;1.70;;
54557;SDS011;40452;50.080;20.040;2023-08-07T17:28:37;6.85;;;1.50;;
54557;SDS011;40452;50.080;20.040;2023-08-07T17:31:03;6.70;;;1.40;;
54557;SDS011;40452;50.080;20.040;2023-08-07T17:33:29;8.05;;;1.80;;
54557;SDS011;40452;50.080;20.040;2023-08-07T17:35:55;7.15;;;1.65;;
54557;SDS011;40452;50.080;20.040;2023-08-07T17:38:21;7.05;;;2.05;;
54557;SDS011;40452;50.080;20.040;2023-08-07T17:40:47;4.05;;;1.33;;
54557;SDS011;40452;50.080;20.040;2023-08-07T17:43:14;4.60;;;1.60;;
54557;SDS011;40452;50.080;20.040;2023-08-07T17:45:40;4.65;;;1.60;;
54557;SDS011;40452;50.080;20.040;2023-08-07T17:48:06;2.65;;;1.40;;
54557;SDS011;40452;50.080;20.040;2023-08-07T17:50:32;6.45;;;1.77;;
54557;SDS011;40452;50.080;20.040;2023-08-07T17:52:57;8.05;;;1.70;;
54557;SDS011;40452;50.080;20.040;2023-08-07T17:55:23;5.40;;;1.60;;
54557;SDS011;40452;50.080;20.040;2023-08-07T17:57:50;4.68;;;1.70;;
54557;SDS011;40452;50.080;20.040;2023-08-07T18:00:16;4.18;;;1.33;;
54557;SDS011;40452;50.080;20.040;2023-08-07T18:02:42;5.82;;;1.50;;
54557;SDS011;40452;50.080;20.040;2023-08-07T18:05:08;2.55;;;1.55;;
54557;SDS011;40452;50.080;20.040;2023-08-07T18:07:37;5.30;;;1.60;;
54557;SDS011;40452;50.080;20.040;2023-08-07T18:10:03;2.70;;;1.63;;
54557;SDS011;40452;50.080;20.040;2023-08-07T18:12:32;3.65;;;1.60;;
54557;SDS011;40452;50.080;20.040;2023-08-07T18:14:58;3.88;;;1.90;;
54557;SDS011;40452;50.080;20.040;2023-08-07T18:17:24;3.65;;;1.50;;
54557;SDS011;40452;50.080;20.040;2023-08-07T18:19:50;2.42;;;1.50;;
54557;SDS011;40452;50.080;20.040;2023-08-07T18:22:17;2.50;;;1.48;;
54557;SDS011;40452;50.080;20.040;2023-08-07T18:24:43;1.70;;;1.40;;
54557;SDS011;40452;50.080;20.040;2023-08-07T18:27:09;3.53;;;1.88;;
54557;SDS011;40452;50.080;20.040;2023-08-07T18:29:34;2.42;;;1.50;;
54557;SDS011;40452;50.080;20.040;2023-08-07T18:32:00;6.45;;;1.80;;
54557;SDS011;40452;50.080;20.040;2023-08-07T18:34:26;3.85;;;1.90;;
54557;SDS011;40452;50.080;20.040;2023-08-07T18:36:52;3.30;;;1.92;;
54557;SDS011;40452;50.080;20.040;2023-08-07T18:39:17;3.70;;;1.70;;
54557;SDS011;40452;50.080;20.040;2023-08-07T18:41:43;5.30;;;1.80;;
54557;SDS011;40452;50.080;20.040;2023-08-07T18:44:09;3.20;;;1.73;;
54557;SDS011;40452;50.080;20.040;2023-08-07T18:46:34;4.38;;;2.17;;
54557;SDS011;40452;50.080;20.040;2023-08-07T18:49:00;4.28;;;1.75;;
54557;SDS011;40452;50.080;20.040;2023-08-07T18:51:26;2.42;;;1.88;;
54557;SDS011;40452;50.080;20.040;2023-08-07T18:53:53;5.47;;;1.60;;
54557;SDS011;40452;50.080;20.040;2023-08-07T18:56:19;2.90;;;2.08;;
54557;SDS011;40452;50.080;20.040;2023-08-07T18:58:45;2.45;;;1.83;;
54557;SDS011;40452;50.080;20.040;2023-08-07T19:01:10;2.70;;;1.92;;
54557;SDS011;40452;50.080;20.040;2023-08-07T19:03:36;3.42;;;1.83;;
54557;SDS011;40452;50.080;20.040;2023-08-07T19:06:02;3.35;;;1.80;;
54557;SDS011;40452;50.080;20.040;2023-08-07T19:08:30;3.33;;;1.88;;
54557;SDS011;40452;50.080;20.040;2023-08-07T19:10:57;2.55;;;1.75;;
54557;SDS011;40452;50.080;20.040;2023-08-07T19:13:22;2.45;;;1.70;;
54557;SDS011;40452;50.080;20.040;2023-08-07T19:15:48;8.30;;;2.15;;
54557;SDS011;40452;50.080;20.040;2023-08-07T19:18:14;6.15;;;1.70;;
54557;SDS011;40452;50.080;20.040;2023-08-07T19:20:39;6.07;;;1.48;;
54557;SDS011;40452;50.080;20.040;2023-08-07T19:23:07;4.13;;;1.95;;
54557;SDS011;40452;50.080;20.040;2023-08-07T19:25:36;5.45;;;1.80;;
54557;SDS011;40452;50.080;20.040;2023-08-07T19:28:02;3.58;;;1.75;;
54557;SDS011;40452;50.080;20.040;2023-08-07T19:30:28;3.25;;;1.70;;
54557;SDS011;40452;50.080;20.040;2023-08-07T19:32:54;5.53;;;1.73;;
54557;SDS011;40452;50.080;20.040;2023-08-07T19:35:19;3.85;;;1.45;;
54557;SDS011;40452;50.080;20.040;2023-08-07T19:37:45;2.47;;;1.60;;
54557;SDS011;40452;50.080;20.040;2023-08-07T19:40:12;4.53;;;1.80;;
54557;SDS011;40452;50.080;20.040;2023-08-07T19:42:37;3.20;;;1.75;;
54557;SDS011;40452;50.080;20.040;2023-08-07T19:45:03;3.78;;;1.70;;
54557;SDS011;40452;50.080;20.040;2023-08-07T19:47:29;3.38;;;1.63;;
54557;SDS011;40452;50.080;20.040;2023-08-07T19:49:54;4.43;;;1.80;;
54557;SDS011;40452;50.080;20.040;2023-08-07T19:52:20;4.53;;;1.88;;
54557;SDS011;40452;50.080;20.040;2023-08-07T19:54:45;2.60;;;1.95;;
54557;SDS011;40452;50.080;20.040;2023-08-07T19:57:12;3.38;;;2.03;;
54557;SDS011;40452;50.080;20.040;2023-08-07T19:59:37;3.13;;;2.10;;
54557;SDS011;40452;50.080;20.040;2023-08-07T20:02:03;3.58;;;2.10;;
54557;SDS011;40452;50.080;20.040;2023-08-07T20:04:29;3.15;;;2.15;;
54557;SDS011;40452;50.080;20.040;2023-08-07T20:06:55;3.83;;;1.80;;
54557;SDS011;40452;50.080;20.040;2023-08-07T20:09:20;3.70;;;1.90;;
54557;SDS011;40452;50.080;20.040;2023-08-07T20:11:46;3.90;;;2.00;;
54557;SDS011;40452;50.080;20.040;2023-08-07T20:14:12;2.75;;;2.00;;
54557;SDS011;40452;50.080;20.040;2023-08-07T20:16:37;2.63;;;1.90;;
54557;SDS011;40452;50.080;20.040;2023-08-07T20:19:03;3.10;;;2.10;;
54557;SDS011;40452;50.080;20.040;2023-08-07T20:21:29;2.72;;;2.10;;
54557;SDS011;40452;50.080;20.040;2023-08-07T20:23:54;3.33;;;2.10;;
54557;SDS011;40452;50.080;20.040;2023-08-07T20:26:20;4.10;;;2.10;;
54557;SDS011;40452;50.080;20.040;2023-08-07T20:28:46;2.83;;;1.90;;
54557;SDS011;40452;50.080;20.040;2023-08-07T20:31:12;2.80;;;1.90;;
54557;SDS011;40452;50.080;20.040;2023-08-07T20:33:37;2.53;;;1.60;;
54557;SDS011;40452;50.080;20.040;2023-08-07T20:36:06;3.15;;;1.80;;
54557;SDS011;40452;50.080;20.040;2023-08-07T20:38:32;2.47;;;1.58;;
54557;SDS011;40452;50.080;20.040;2023-08-07T20:40:57;3.28;;;1.52;;
54557;SDS011;40452;50.080;20.040;2023-08-07T20:43:23;2.60;;;1.50;;
54557;SDS011;40452;50.080;20.040;2023-08-07T20:45:48;3.47;;;1.70;;
54557;SDS011;40452;50.080;20.040;2023-08-07T20:48:14;5.47;;;1.80;;
54557;SDS011;40452;50.080;20.040;2023-08-07T20:50:40;2.58;;;1.50;;
54557;SDS011;40452;50.080;20.040;2023-08-07T20:53:06;3.92;;;1.60;;
54557;SDS011;40452;50.080;20.040;2023-08-07T20:55:31;2.72;;;1.70;;
54557;SDS011;40452;50.080;20.040;2023-08-07T20:57:57;3.42;;;1.65;;
54557;SDS011;40452;50.080;20.040;2023-08-07T21:00:24;2.63;;;1.60;;
54557;SDS011;40452;50.080;20.040;2023-08-07T21:02:50;2.88;;;1.60;;
54557;SDS011;40452;50.080;20.040;2023-08-07T21:05:16;3.03;;;1.60;;
54557;SDS011;40452;50.080;20.040;2023-08-07T21:07:41;2.30;;;1.33;;
54557;SDS011;40452;50.080;20.040;2023-08-07T21:10:07;2.50;;;1.70;;
54557;SDS011;40452;50.080;20.040;2023-08-07T21:12:33;1.90;;;1.25;;
54557;SDS011;40452;50.080;20.040;2023-08-07T21:14:58;2.22;;;1.10;;
54557;SDS011;40452;50.080;20.040;2023-08-07T21:17:28;2.13;;;1.50;;
54557;SDS011;40452;50.080;20.040;2023-08-07T21:19:54;3.92;;;1.45;;
54557;SDS011;40452;50.080;20.040;2023-08-07T21:22:19;3.60;;;1.35;;
54557;SDS011;40452;50.080;20.040;2023-08-07T21:24:45;2.25;;;1.23;;
54557;SDS011;40452;50.080;20.040;2023-08-07T21:27:11;2.67;;;1.35;;
54557;SDS011;40452;50.080;20.040;2023-08-07T21:29:37;2.17;;;1.23;;
54557;SDS011;40452;50.080;20.040;2023-08-07T21:32:02;2.50;;;1.13;;
